Time;durP1;ratioP1;P1;durP2;ratioP2;P2;SDS_P1;SDS_P2;PMS_P1;PMS_P2;Temp;Humidity;BMP_temperature;BMP_pressure;BME280_temperature;BME280_humidity;BME280_pressure;Samples;Min_cycle;Max_cycle;Signal;HPM_P1;HPM_P2
2022/09/29 00:01:33;;;;;;;5.10;3.70;;;;;;;;;;5013692;28;20030;-80
2022/09/29 00:03:59;;;;;;;8.98;4.68;;;;;;;;;;5013257;28;20038;-80
2022/09/29 00:06:25;;;;;;;9.20;5.45;;;;;;;;;;5013519;28;20551;-80
2022/09/29 00:08:51;;;;;;;12.40;7.63;;;;;;;;;;5013341;28;20034;-81
2022/09/29 00:11:18;;;;;;;18.15;10.02;;;;;;;;;;5013175;28;20413;-81
2022/09/29 00:13:44;;;;;;;10.57;6.25;;;;;;;;;;5013383;28;20030;-80
2022/09/29 00:16:11;;;;;;;11.68;5.65;;;;;;;;;;5013304;28;20394;-80
2022/09/29 00:18:37;;;;;;;9.60;4.55;;;;;;;;;;5013421;28;20042;-80
2022/09/29 00:21:04;;;;;;;9.07;4.50;;;;;;;;;;5013094;28;20113;-81
2022/09/29 00:23:31;;;;;;;7.75;4.22;;;;;;;;;;5013310;28;20166;-81
2022/09/29 00:26:03;;;;;;;5.68;3.40;;;;;;;;;;5013034;28;20164;-81
2022/09/29 00:28:29;;;;;;;6.60;3.90;;;;;;;;;;5013185;28;20120;-81
2022/09/29 00:30:57;;;;;;;6.90;3.85;;;;;;;;;;5012933;28;20049;-80
2022/09/29 00:33:23;;;;;;;7.10;3.55;;;;;;;;;;5013161;28;20034;-80
2022/09/29 00:35:57;;;;;;;7.93;3.35;;;;;;;;;;5013019;28;20042;-81
2022/09/29 00:38:23;;;;;;;7.90;4.45;;;;;;;;;;5013001;28;20040;-80
2022/09/29 00:40:49;;;;;;;5.20;2.80;;;;;;;;;;5012821;28;20506;-80
2022/09/29 00:43:20;;;;;;;4.63;2.63;;;;;;;;;;5012898;28;20104;-80
2022/09/29 00:45:46;;;;;;;7.85;5.45;;;;;;;;;;5012800;28;20041;-80
2022/09/29 00:48:14;;;;;;;23.35;17.83;;;;;;;;;;5012839;28;20116;-81
2022/09/29 00:50:40;;;;;;;6.47;3.63;;;;;;;;;;5012683;28;20096;-81
2022/09/29 00:53:10;;;;;;;5.85;2.30;;;;;;;;;;5012633;28;20507;-81
2022/09/29 00:55:40;;;;;;;5.25;2.20;;;;;;;;;;5012673;28;20033;-80
2022/09/29 00:58:25;;;;;;;3.95;2.25;;;;;;;;;;5012770;28;20443;-80
2022/09/29 01:00:52;;;;;;;4.03;2.22;;;;;;;;;;5012822;28;20033;-80
2022/09/29 01:03:20;;;;;;;6.38;2.33;;;;;;;;;;5012786;28;20052;-80
2022/09/29 01:05:49;;;;;;;3.92;2.25;;;;;;;;;;5012673;28;20038;-80
2022/09/29 01:08:24;;;;;;;2.75;1.83;;;;;;;;;;5012584;28;20137;-80
2022/09/29 01:10:51;;;;;;;4.57;2.90;;;;;;;;;;4994903;28;20044;-81
2022/09/29 01:13:17;;;;;;;3.15;2.28;;;;;;;;;;5012477;28;20066;-80
2022/09/29 01:15:44;;;;;;;3.35;2.45;;;;;;;;;;5012742;28;20105;-80
2022/09/29 01:18:10;;;;;;;4.85;2.53;;;;;;;;;;5012527;28;20038;-80
2022/09/29 01:20:45;;;;;;;4.10;2.17;;;;;;;;;;5012505;28;20033;-81
2022/09/29 01:23:29;;;;;;;5.13;2.45;;;;;;;;;;5012415;28;20062;-80
2022/09/29 01:25:55;;;;;;;;;;;;;;;;;;5012931;28;20081;-80
2022/09/29 01:28:40;;;;;;;4.10;2.50;;;;;;;;;;5012425;28;20327;-80
2022/09/29 01:31:06;;;;;;;;;;;;;;;;;;5012649;28;20104;-81
2022/09/29 01:33:51;;;;;;;5.07;3.22;;;;;;;;;;5012558;28;20357;-81
2022/09/29 01:36:33;;;;;;;5.30;2.72;;;;;;;;;;5012302;28;20507;-80
2022/09/29 01:39:03;;;;;;;3.72;2.15;;;;;;;;;;5012390;28;20480;-80
2022/09/29 01:41:29;;;;;;;3.92;2.33;;;;;;;;;;5012135;28;20038;-81
2022/09/29 01:44:03;;;;;;;6.35;2.90;;;;;;;;;;5012390;28;20046;-81
2022/09/29 01:46:48;;;;;;;2.80;1.95;;;;;;;;;;4994581;28;20089;-81
2022/09/29 01:49:14;;;;;;;3.67;2.10;;;;;;;;;;4994527;28;20516;-81
2022/09/29 01:51:58;;;;;;;3.40;2.30;;;;;;;;;;5012184;28;20121;-81
2022/09/29 01:54:36;;;;;;;4.97;2.40;;;;;;;;;;5012251;28;20034;-81
2022/09/29 01:57:08;;;;;;;3.75;1.85;;;;;;;;;;5012265;28;20041;-79
2022/09/29 01:59:42;;;;;;;3.75;1.83;;;;;;;;;;5012035;28;20033;-80
2022/09/29 02:02:11;;;;;;;4.35;2.13;;;;;;;;;;5012217;28;20049;-81
2022/09/29 02:04:41;;;;;;;4.03;1.80;;;;;;;;;;5011995;28;20049;-80
2022/09/29 02:07:14;;;;;;;3.40;2.05;;;;;;;;;;5013650;28;20041;-81
2022/09/29 02:09:43;;;;;;;3.27;2.17;;;;;;;;;;5015622;28;20041;-80
2022/09/29 02:12:10;;;;;;;5.47;2.60;;;;;;;;;;5015572;28;20050;-81
2022/09/29 02:14:54;;;;;;;5.80;2.58;;;;;;;;;;5015388;28;20473;-81
2022/09/29 02:17:22;;;;;;;5.97;3.30;;;;;;;;;;5015483;28;20030;-81
2022/09/29 02:19:52;;;;;;;3.70;2.10;;;;;;;;;;5015589;28;20034;-80
2022/09/29 02:22:18;;;;;;;4.03;1.88;;;;;;;;;;5015432;28;20046;-80
2022/09/29 02:24:45;;;;;;;4.63;2.30;;;;;;;;;;4998220;28;20042;-80
2022/09/29 02:27:11;;;;;;;3.97;2.00;;;;;;;;;;4997608;28;20038;-80
2022/09/29 02:29:38;;;;;;;5.00;1.70;;;;;;;;;;5015321;28;20345;-80
2022/09/29 02:32:05;;;;;;;2.95;2.20;;;;;;;;;;5015106;28;20048;-80
2022/09/29 02:34:34;;;;;;;5.55;3.17;;;;;;;;;;5015231;28;20172;-80
2022/09/29 02:37:18;;;;;;;6.70;3.67;;;;;;;;;;5015127;28;20065;-80
2022/09/29 02:39:44;;;;;;;;;;;;;;;;;;5015564;28;20042;-80
2022/09/29 02:42:29;;;;;;;7.88;3.33;;;;;;;;;;5015170;28;19911;-80
2022/09/29 02:44:55;;;;;;;;;;;;;;;;;;5015411;28;20030;-80
2022/09/29 02:47:50;;;;;;;5.28;3.47;;;;;;;;;;5014957;28;19912;-81
2022/09/29 02:50:29;;;;;;;7.25;3.17;;;;;;;;;;4990367;28;20050;-81
2022/09/29 02:53:13;;;;;;;5.22;2.88;;;;;;;;;;4993291;28;20113;-81
2022/09/29 02:55:56;;;;;;;5.07;3.22;;;;;;;;;;5014973;28;20034;-81
2022/09/29 02:58:38;;;;;;;5.43;3.45;;;;;;;;;;5014820;28;20030;-81
2022/09/29 03:01:04;;;;;;;6.80;4.00;;;;;;;;;;5014789;28;20038;-81
2022/09/29 03:03:30;;;;;;;5.00;3.90;;;;;;;;;;5014476;28;20049;-81
2022/09/29 03:05:57;;;;;;;8.05;3.75;;;;;;;;;;5014786;28;20034;-80
2022/09/29 03:08:23;;;;;;;7.15;4.75;;;;;;;;;;5014476;28;20045;-81
2022/09/29 03:10:49;;;;;;;6.63;3.15;;;;;;;;;;5014203;28;20045;-81
2022/09/29 03:13:15;;;;;;;5.95;3.70;;;;;;;;;;5014564;28;20478;-80
2022/09/29 03:15:41;;;;;;;11.20;3.90;;;;;;;;;;5014295;28;20034;-80
2022/09/29 03:18:07;;;;;;;6.47;4.15;;;;;;;;;;5013451;28;20038;-80
2022/09/29 03:20:33;;;;;;;10.20;6.95;;;;;;;;;;5014156;28;20041;-80
2022/09/29 03:22:59;;;;;;;15.30;11.55;;;;;;;;;;4996834;28;20034;-80
2022/09/29 03:25:25;;;;;;;5.68;3.42;;;;;;;;;;5014145;28;20041;-81
2022/09/29 03:27:52;;;;;;;8.63;4.60;;;;;;;;;;5014093;28;20041;-81
2022/09/29 03:30:18;;;;;;;8.98;4.32;;;;;;;;;;5014062;28;20050;-80
2022/09/29 03:32:44;;;;;;;7.40;4.45;;;;;;;;;;5013951;28;20488;-81
2022/09/29 03:35:11;;;;;;;7.53;4.57;;;;;;;;;;5014103;28;20037;-80
2022/09/29 03:37:37;;;;;;;8.30;4.03;;;;;;;;;;5013889;28;20116;-80
2022/09/29 03:40:04;;;;;;;8.90;6.93;;;;;;;;;;4996504;28;20037;-80
2022/09/29 03:42:31;;;;;;;7.85;5.70;;;;;;;;;;5013686;28;20033;-81
2022/09/29 03:44:57;;;;;;;7.07;5.65;;;;;;;;;;5013897;28;20509;-80
2022/09/29 03:47:23;;;;;;;7.70;6.45;;;;;;;;;;5013697;28;20077;-81
2022/09/29 03:49:49;;;;;;;8.43;6.35;;;;;;;;;;5013547;28;20042;-80
2022/09/29 03:52:16;;;;;;;7.97;4.53;;;;;;;;;;5013669;28;20096;-80
2022/09/29 03:54:42;;;;;;;12.57;8.35;;;;;;;;;;5013581;28;20097;-80
2022/09/29 03:57:08;;;;;;;6.18;4.25;;;;;;;;;;5013793;28;20040;-80
2022/09/29 03:59:34;;;;;;;8.27;4.85;;;;;;;;;;5013516;28;20037;-80
2022/09/29 04:02:01;;;;;;;8.80;5.05;;;;;;;;;;5013484;28;20076;-80
2022/09/29 04:04:27;;;;;;;11.75;4.95;;;;;;;;;;5013455;28;20530;-80
2022/09/29 04:06:53;;;;;;;6.20;4.18;;;;;;;;;;5013484;28;20041;-80
2022/09/29 04:09:19;;;;;;;7.88;4.65;;;;;;;;;;5013188;28;20030;-81
2022/09/29 04:11:46;;;;;;;10.02;6.15;;;;;;;;;;5012935;28;20060;-81
2022/09/29 04:14:12;;;;;;;11.43;6.68;;;;;;;;;;5013534;28;20481;-81
2022/09/29 04:16:38;;;;;;;15.63;10.57;;;;;;;;;;5013301;28;20034;-81
2022/09/29 04:19:04;;;;;;;13.32;9.50;;;;;;;;;;5013249;28;20096;-80
2022/09/29 04:21:30;;;;;;;14.32;7.20;;;;;;;;;;5013279;28;20056;-80
2022/09/29 04:23:56;;;;;;;13.25;8.27;;;;;;;;;;5013192;28;20030;-81
2022/09/29 04:26:22;;;;;;;9.00;6.85;;;;;;;;;;5013157;28;20073;-80
2022/09/29 04:28:48;;;;;;;11.45;6.50;;;;;;;;;;5013189;28;20516;-80
2022/09/29 04:31:14;;;;;;;18.85;7.40;;;;;;;;;;5012887;28;20069;-80
2022/09/29 04:33:40;;;;;;;16.23;10.52;;;;;;;;;;5013170;28;20048;-80
2022/09/29 04:36:07;;;;;;;17.52;12.13;;;;;;;;;;5011804;28;20183;-80
2022/09/29 04:38:33;;;;;;;22.23;15.30;;;;;;;;;;4988899;28;20448;-80
2022/09/29 04:40:59;;;;;;;19.33;8.55;;;;;;;;;;5010423;28;20084;-80
2022/09/29 04:43:25;;;;;;;14.20;7.88;;;;;;;;;;5008990;28;20033;-79
2022/09/29 04:45:52;;;;;;;16.33;8.88;;;;;;;;;;5009360;28;20040;-80
2022/09/29 04:48:18;;;;;;;18.10;8.93;;;;;;;;;;4994151;28;20045;-79
2022/09/29 04:50:44;;;;;;;17.60;9.35;;;;;;;;;;5012701;28;20044;-80
2022/09/29 04:53:11;;;;;;;16.10;8.68;;;;;;;;;;4999044;28;20046;-79
2022/09/29 04:55:38;;;;;;;14.85;7.93;;;;;;;;;;4993143;28;20117;-79
2022/09/29 04:58:04;;;;;;;15.55;8.85;;;;;;;;;;4992977;28;20034;-78
2022/09/29 05:00:31;;;;;;;18.83;9.95;;;;;;;;;;4992914;28;20121;-81
2022/09/29 05:02:59;;;;;;;31.50;22.00;;;;;;;;;;4992957;28;20145;-80
2022/09/29 05:05:25;;;;;;;17.67;12.45;;;;;;;;;;4992982;28;20057;-80
2022/09/29 05:07:51;;;;;;;13.55;6.63;;;;;;;;;;4993043;28;20041;-80
2022/09/29 05:10:17;;;;;;;9.80;5.25;;;;;;;;;;4992774;28;20053;-80
2022/09/29 05:12:50;;;;;;;8.35;5.82;;;;;;;;;;5007410;28;20134;-79
2022/09/29 05:15:17;;;;;;;13.75;6.72;;;;;;;;;;4992912;28;20031;-79
2022/09/29 05:17:43;;;;;;;12.32;6.70;;;;;;;;;;4992945;28;20039;-80
2022/09/29 05:20:09;;;;;;;12.85;7.55;;;;;;;;;;4992738;28;20034;-79
2022/09/29 05:22:36;;;;;;;13.32;7.57;;;;;;;;;;4992606;28;20041;-78
2022/09/29 05:25:02;;;;;;;18.25;7.82;;;;;;;;;;4992103;28;20516;-78
2022/09/29 05:27:28;;;;;;;21.83;8.20;;;;;;;;;;5001443;28;20037;-79
2022/09/29 05:29:54;;;;;;;15.15;8.40;;;;;;;;;;5002950;28;20117;-78
2022/09/29 05:32:20;;;;;;;7.63;5.20;;;;;;;;;;4998591;28;20037;-79
2022/09/29 05:34:46;;;;;;;8.52;4.47;;;;;;;;;;5006182;28;20109;-79
2022/09/29 05:37:12;;;;;;;7.55;4.70;;;;;;;;;;5006368;28;20030;-79
2022/09/29 05:39:38;;;;;;;10.15;5.47;;;;;;;;;;5008157;28;20133;-78
2022/09/29 05:42:05;;;;;;;11.05;5.82;;;;;;;;;;5009656;28;20029;-81
2022/09/29 05:44:32;;;;;;;10.82;5.75;;;;;;;;;;5013886;28;20522;-79
2022/09/29 05:46:59;;;;;;;10.25;6.45;;;;;;;;;;5009708;28;20033;-80
2022/09/29 05:49:30;;;;;;;10.30;6.13;;;;;;;;;;5004717;28;20038;-80
2022/09/29 05:51:58;;;;;;;11.48;6.90;;;;;;;;;;4995441;28;20559;-80
2022/09/29 05:54:26;;;;;;;14.45;9.02;;;;;;;;;;5008426;28;20129;-80
2022/09/29 05:56:52;;;;;;;18.08;14.10;;;;;;;;;;4996587;28;20038;-78
2022/09/29 05:59:18;;;;;;;17.40;9.65;;;;;;;;;;5010766;28;20515;-79
2022/09/29 06:01:44;;;;;;;24.27;13.90;;;;;;;;;;5012035;28;20036;-78
2022/09/29 06:04:10;;;;;;;15.95;9.70;;;;;;;;;;5007573;28;20036;-78
2022/09/29 06:06:39;;;;;;;18.23;12.88;;;;;;;;;;5012045;28;20124;-82
2022/09/29 06:09:05;;;;;;;39.50;33.95;;;;;;;;;;5011644;28;20065;-80
2022/09/29 06:11:31;;;;;;;66.50;59.45;;;;;;;;;;5012701;28;20512;-79
2022/09/29 06:13:57;;;;;;;39.47;33.97;;;;;;;;;;5012113;28;20033;-81
2022/09/29 06:16:25;;;;;;;29.75;22.95;;;;;;;;;;5013694;28;20087;-79
2022/09/29 06:18:51;;;;;;;21.25;14.25;;;;;;;;;;5013650;28;20038;-78
2022/09/29 06:21:20;;;;;;;16.88;12.57;;;;;;;;;;5013501;28;20042;-81
2022/09/29 06:23:46;;;;;;;23.10;13.13;;;;;;;;;;5000650;28;20049;-78
2022/09/29 06:26:13;;;;;;;14.93;11.90;;;;;;;;;;4998041;28;20072;-79
2022/09/29 06:28:39;;;;;;;16.60;11.02;;;;;;;;;;5010646;28;20114;-79
2022/09/29 06:31:10;;;;;;;15.63;9.45;;;;;;;;;;5007051;28;20528;-80
2022/09/29 06:33:36;;;;;;;19.35;9.68;;;;;;;;;;5013196;28;20092;-79
2022/09/29 06:38:49;;;;;;;21.50;11.52;;;;;;;;;;5012437;28;20052;-78
2022/09/29 06:41:16;;;;;;;13.25;9.20;;;;;;;;;;5012383;28;20038;-78
2022/09/29 06:43:42;;;;;;;12.43;7.15;;;;;;;;;;5012576;28;20492;-78
2022/09/29 06:46:08;;;;;;;8.57;5.22;;;;;;;;;;5011886;28;20038;-78
2022/09/29 06:48:34;;;;;;;9.80;5.90;;;;;;;;;;5013092;28;20041;-80
2022/09/29 06:51:00;;;;;;;9.90;6.25;;;;;;;;;;5012552;28;20497;-79
2022/09/29 06:53:26;;;;;;;10.77;6.03;;;;;;;;;;5013335;28;20116;-79
2022/09/29 06:55:54;;;;;;;10.75;5.93;;;;;;;;;;5009762;28;20045;-86
2022/09/29 06:58:20;;;;;;;9.00;4.95;;;;;;;;;;4993902;28;20037;-79
2022/09/29 07:00:46;;;;;;;11.73;5.53;;;;;;;;;;5011159;28;20041;-85
2022/09/29 07:03:13;;;;;;;9.20;4.78;;;;;;;;;;5013139;28;20548;-84
2022/09/29 07:05:39;;;;;;;6.88;4.55;;;;;;;;;;5013053;28;20054;-80
2022/09/29 07:08:05;;;;;;;8.73;4.68;;;;;;;;;;5012968;28;20076;-83
2022/09/29 07:10:32;;;;;;;11.18;4.38;;;;;;;;;;5012496;28;20041;-83
2022/09/29 07:12:58;;;;;;;9.57;4.30;;;;;;;;;;5012622;28;20120;-83
2022/09/29 07:15:30;;;;;;;7.45;4.43;;;;;;;;;;4978806;28;20040;-83
2022/09/29 07:17:57;;;;;;;11.57;4.30;;;;;;;;;;5012591;28;20631;-79
2022/09/29 07:20:23;;;;;;;8.63;4.75;;;;;;;;;;5012518;28;20045;-82
2022/09/29 07:22:49;;;;;;;15.57;5.80;;;;;;;;;;4994373;28;20037;-83
2022/09/29 07:25:15;;;;;;;39.97;13.73;;;;;;;;;;5010627;28;20041;-81
2022/09/29 07:27:42;;;;;;;24.45;9.77;;;;;;;;;;5010961;28;20559;-81
2022/09/29 07:30:08;;;;;;;33.45;12.07;;;;;;;;;;5012449;28;20042;-83
2022/09/29 07:32:34;;;;;;;63.92;21.55;;;;;;;;;;4993443;28;20092;-83
2022/09/29 07:35:00;;;;;;;57.47;27.25;;;;;;;;;;5011510;28;20034;-83
2022/09/29 07:37:28;;;;;;;19.55;9.93;;;;;;;;;;5007630;28;20076;-83
2022/09/29 07:39:54;;;;;;;52.08;17.77;;;;;;;;;;5010200;28;20069;-79
2022/09/29 07:42:20;;;;;;;56.63;18.52;;;;;;;;;;5011870;28;20448;-78
2022/09/29 07:44:47;;;;;;;40.28;15.98;;;;;;;;;;5009820;28;20038;-78
2022/09/29 07:47:13;;;;;;;30.13;12.25;;;;;;;;;;5011746;28;20124;-79
2022/09/29 07:49:40;;;;;;;44.70;16.38;;;;;;;;;;5009501;28;20038;-80
2022/09/29 07:52:07;;;;;;;47.58;18.98;;;;;;;;;;4982524;28;20517;-79
2022/09/29 07:54:33;;;;;;;46.40;33.80;;;;;;;;;;5001403;28;20068;-78
2022/09/29 07:57:01;;;;;;;196.73;75.97;;;;;;;;;;5011623;28;20037;-81
2022/09/29 07:59:27;;;;;;;252.40;92.05;;;;;;;;;;5011597;28;20131;-79
2022/09/29 08:01:53;;;;;;;134.38;49.40;;;;;;;;;;5010794;28;20042;-79
2022/09/29 08:04:19;;;;;;;87.70;34.97;;;;;;;;;;5009997;28;20034;-79
2022/09/29 08:06:46;;;;;;;77.03;28.52;;;;;;;;;;5010594;28;20041;-79
2022/09/29 08:09:12;;;;;;;30.92;13.68;;;;;;;;;;5012078;28;20755;-79
2022/09/29 08:11:40;;;;;;;18.85;8.60;;;;;;;;;;5010501;28;20382;-78
2022/09/29 08:14:06;;;;;;;14.73;7.20;;;;;;;;;;5011396;28;20034;-79
2022/09/29 08:16:33;;;;;;;17.75;7.60;;;;;;;;;;5012111;28;20081;-79
2022/09/29 08:19:00;;;;;;;11.32;6.15;;;;;;;;;;5011688;28;20065;-81
2022/09/29 08:21:26;;;;;;;16.88;6.50;;;;;;;;;;5011599;28;20626;-78
2022/09/29 08:23:52;;;;;;;11.52;5.68;;;;;;;;;;5011921;28;20034;-77
2022/09/29 08:26:19;;;;;;;10.32;5.72;;;;;;;;;;5011084;28;20072;-79
2022/09/29 08:28:46;;;;;;;8.07;4.18;;;;;;;;;;5011519;28;20088;-78
2022/09/29 08:31:13;;;;;;;19.35;6.78;;;;;;;;;;5010349;28;20045;-78
2022/09/29 08:33:39;;;;;;;20.65;8.75;;;;;;;;;;4992353;28;20050;-78
2022/09/29 08:36:13;;;;;;;19.63;8.05;;;;;;;;;;4990640;28;20404;-79
2022/09/29 08:38:41;;;;;;;;;;;;;;;;;;5008068;28;20038;-78
2022/09/29 08:41:15;;;;;;;10.00;5.80;;;;;;;;;;5003775;28;19916;-82
2022/09/29 08:43:43;;;;;;;9.85;5.47;;;;;;;;;;5011394;28;20066;-80
2022/09/29 08:46:21;;;;;;;9.38;4.60;;;;;;;;;;5010542;28;20042;-80
2022/09/29 08:48:49;;;;;;;8.05;4.07;;;;;;;;;;5009061;28;20496;-78
2022/09/29 08:51:29;;;;;;;7.53;3.75;;;;;;;;;;5010502;28;20050;-79
2022/09/29 08:53:56;;;;;;;8.50;3.65;;;;;;;;;;5009912;28;20057;-80
2022/09/29 08:56:24;;;;;;;7.60;3.20;;;;;;;;;;4992412;28;20037;-79
2022/09/29 08:58:51;;;;;;;8.32;4.05;;;;;;;;;;5010462;28;20038;-79
2022/09/29 09:01:23;;;;;;;9.82;3.58;;;;;;;;;;5009814;28;20046;-79
2022/09/29 09:04:06;;;;;;;6.90;3.00;;;;;;;;;;5010675;28;20141;-79
2022/09/29 09:06:55;;;;;;;5.88;2.58;;;;;;;;;;4991621;28;20053;-79
2022/09/29 09:09:27;;;;;;;7.13;2.95;;;;;;;;;;5001382;28;20096;-80
2022/09/29 09:11:56;;;;;;;6.95;2.78;;;;;;;;;;5010311;28;20125;-79
2022/09/29 09:14:22;;;;;;;12.90;4.78;;;;;;;;;;5009446;28;20443;-79
2022/09/29 09:17:09;;;;;;;14.68;5.75;;;;;;;;;;5010996;28;20072;-80
2022/09/29 09:19:35;;;;;;;8.00;4.40;;;;;;;;;;5013218;28;20038;-80
2022/09/29 09:22:04;;;;;;;6.78;2.45;;;;;;;;;;5013757;28;20378;-80
2022/09/29 09:24:39;;;;;;;4.88;2.55;;;;;;;;;;5014538;28;20100;-79
2022/09/29 09:27:11;;;;;;;5.63;2.65;;;;;;;;;;5011777;28;20088;-79
2022/09/29 09:29:41;;;;;;;6.63;2.50;;;;;;;;;;5012717;28;20432;-80
2022/09/29 09:32:26;;;;;;;4.05;1.60;;;;;;;;;;5015062;28;20706;-78
2022/09/29 09:34:57;;;;;;;4.78;1.75;;;;;;;;;;5014963;28;20044;-79
2022/09/29 09:37:24;;;;;;;5.65;1.98;;;;;;;;;;5013810;28;20046;-80
2022/09/29 09:40:10;;;;;;;3.47;1.58;;;;;;;;;;5011595;28;20496;-81
2022/09/29 09:42:41;;;;;;;3.08;1.52;;;;;;;;;;5014562;28;20042;-78
2022/09/29 09:45:29;;;;;;;8.50;5.85;;;;;;;;;;5009612;28;20045;-80
2022/09/29 09:48:07;;;;;;;5.57;3.53;;;;;;;;;;5013605;28;20040;-77
2022/09/29 09:50:36;;;;;;;3.47;2.00;;;;;;;;;;5013930;28;20030;-80
2022/09/29 09:53:10;;;;;;;3.63;1.65;;;;;;;;;;4993753;28;20069;-79
2022/09/29 09:55:39;;;;;;;5.65;1.13;;;;;;;;;;5013077;28;20126;-78
2022/09/29 09:58:24;;;;;;;4.95;1.92;;;;;;;;;;4995308;28;20034;-81
2022/09/29 10:00:59;;;;;;;4.53;1.67;;;;;;;;;;4989764;28;20126;-79
2022/09/29 10:03:26;;;;;;;2.67;1.60;;;;;;;;;;5012229;28;20509;-80
2022/09/29 10:05:57;;;;;;;5.40;1.55;;;;;;;;;;5013085;28;20045;-79
2022/09/29 10:08:25;;;;;;;4.72;2.72;;;;;;;;;;5014086;28;20034;-79
2022/09/29 10:10:51;;;;;;;3.88;1.50;;;;;;;;;;4983179;28;20061;-79
2022/09/29 10:13:17;;;;;;;2.08;1.33;;;;;;;;;;5012627;28;20396;-79
2022/09/29 10:15:46;;;;;;;4.18;1.27;;;;;;;;;;5013446;28;20148;-78
2022/09/29 10:18:35;;;;;;;3.22;1.30;;;;;;;;;;5012224;28;20034;-80
2022/09/29 10:21:01;;;;;;;3.08;1.80;;;;;;;;;;5003351;28;20061;-79
2022/09/29 10:23:28;;;;;;;1.73;1.38;;;;;;;;;;5013768;28;20037;-81
2022/09/29 10:25:57;;;;;;;5.05;1.65;;;;;;;;;;5015774;28;20734;-79
2022/09/29 10:28:24;;;;;;;3.33;2.55;;;;;;;;;;5032790;28;20056;-80
2022/09/29 10:30:50;;;;;;;3.05;1.00;;;;;;;;;;5032955;28;20134;-80
2022/09/29 10:33:21;;;;;;;8.38;2.17;;;;;;;;;;5012881;28;20057;-80
2022/09/29 10:35:47;;;;;;;5.07;1.77;;;;;;;;;;5012402;28;20065;-79
2022/09/29 10:38:19;;;;;;;3.72;1.65;;;;;;;;;;4995772;28;20382;-80
2022/09/29 10:40:58;;;;;;;7.40;3.70;;;;;;;;;;5012427;28;20046;-78
2022/09/29 10:43:32;;;;;;;7.15;6.35;;;;;;;;;;5011063;28;20042;-78
2022/09/29 10:45:58;;;;;;;21.20;18.25;;;;;;;;;;5011995;28;20041;-78
2022/09/29 10:48:25;;;;;;;7.05;6.03;;;;;;;;;;5012279;28;20064;-79
2022/09/29 10:50:59;;;;;;;3.40;2.08;;;;;;;;;;5012278;28;20080;-77
2022/09/29 10:53:31;;;;;;;4.22;1.50;;;;;;;;;;5012771;28;20034;-78
2022/09/29 10:55:58;;;;;;;4.38;2.33;;;;;;;;;;5012200;28;20128;-78
2022/09/29 10:58:27;;;;;;;2.42;1.38;;;;;;;;;;5010988;28;20034;-79
2022/09/29 11:01:12;;;;;;;6.93;2.45;;;;;;;;;;5011896;28;20030;-78
2022/09/29 11:03:41;;;;;;;5.07;2.30;;;;;;;;;;5011982;28;20096;-78
2022/09/29 11:06:26;;;;;;;7.22;3.55;;;;;;;;;;5010239;28;20411;-77
2022/09/29 11:09:11;;;;;;;2.55;1.52;;;;;;;;;;5007534;28;20034;-79
2022/09/29 11:11:39;;;;;;;5.45;2.85;;;;;;;;;;5008347;28;20045;-77
2022/09/29 11:14:05;;;;;;;6.75;3.50;;;;;;;;;;5008429;28;20044;-76
2022/09/29 11:16:36;;;;;;;8.57;3.97;;;;;;;;;;5011561;28;20072;-77
2022/09/29 11:19:08;;;;;;;9.55;3.85;;;;;;;;;;4978092;28;20556;-77
2022/09/29 11:21:53;;;;;;;19.13;8.38;;;;;;;;;;4991804;28;20393;-78
2022/09/29 11:24:28;;;;;;;77.88;69.78;;;;;;;;;;5008605;28;20042;-79
2022/09/29 11:27:02;;;;;;;8.63;5.65;;;;;;;;;;5008947;28;20108;-76
2022/09/29 11:29:51;;;;;;;3.88;2.30;;;;;;;;;;5011525;28;20030;-83
2022/09/29 11:32:21;;;;;;;4.03;1.50;;;;;;;;;;5009281;28;20092;-82
2022/09/29 11:35:10;;;;;;;2.58;1.55;;;;;;;;;;5012384;28;20030;-80
2022/09/29 11:37:39;;;;;;;4.38;1.60;;;;;;;;;;4986330;28;20129;-81
2022/09/29 11:40:05;;;;;;;2.92;2.10;;;;;;;;;;5009971;28;20052;-81
2022/09/29 11:42:41;;;;;;;2.38;1.63;;;;;;;;;;5013809;28;20110;-82
2022/09/29 11:45:27;;;;;;;2.42;1.70;;;;;;;;;;4994751;28;20046;-81
2022/09/29 11:48:05;;;;;;;6.38;3.00;;;;;;;;;;5011627;28;20048;-81
2022/09/29 11:50:45;;;;;;;2.60;1.95;;;;;;;;;;4993780;28;20404;-81
2022/09/29 11:53:23;;;;;;;3.72;1.73;;;;;;;;;;5011838;28;20846;-78
2022/09/29 11:56:02;;;;;;;5.13;2.35;;;;;;;;;;4986043;28;20045;-79
2022/09/29 11:58:28;;;;;;;7.22;3.63;;;;;;;;;;5011685;28;20030;-78
2022/09/29 12:01:13;;;;;;;14.77;6.90;;;;;;;;;;5011790;28;20119;-81
2022/09/29 12:03:57;;;;;;;10.60;6.32;;;;;;;;;;5009749;28;20060;-81
2022/09/29 12:06:42;;;;;;;21.17;9.07;;;;;;;;;;5011200;28;20037;-80
2022/09/29 12:09:11;;;;;;;45.83;24.35;;;;;;;;;;4991162;28;20037;-78
2022/09/29 12:11:47;;;;;;;12.60;6.50;;;;;;;;;;5011905;28;20089;-76
2022/09/29 12:14:29;;;;;;;5.43;4.80;;;;;;;;;;5010916;28;20500;-78
2022/09/29 12:17:01;;;;;;;11.00;7.72;;;;;;;;;;5009852;28;20061;-77
2022/09/29 12:19:30;;;;;;;11.95;7.13;;;;;;;;;;4994406;28;20034;-76
2022/09/29 12:21:59;;;;;;;5.53;4.32;;;;;;;;;;5009631;28;20058;-78
2022/09/29 12:24:42;;;;;;;5.97;5.18;;;;;;;;;;5010501;28;20042;-78
2022/09/29 12:27:16;;;;;;;5.07;4.37;;;;;;;;;;5010334;28;20133;-78
2022/09/29 12:29:52;;;;;;;5.78;3.42;;;;;;;;;;5010234;28;20392;-79
2022/09/29 12:32:27;;;;;;;3.42;2.17;;;;;;;;;;5010605;28;20048;-78
2022/09/29 12:35:02;;;;;;;3.15;1.98;;;;;;;;;;4997557;28;20107;-79
2022/09/29 12:37:36;;;;;;;3.28;2.40;;;;;;;;;;5002271;28;20045;-78
2022/09/29 12:40:02;;;;;;;;;;;;;;;;;;5011952;28;20040;-77
2022/09/29 12:42:40;;;;;;;11.57;6.50;;;;;;;;;;5009438;28;19918;-78
2022/09/29 12:45:26;;;;;;;13.48;5.85;;;;;;;;;;5011301;28;20487;-77
2022/09/29 12:48:11;;;;;;;25.48;10.15;;;;;;;;;;5011660;28;20041;-78
2022/09/29 12:50:44;;;;;;;35.60;13.38;;;;;;;;;;4992602;28;20074;-77
2022/09/29 12:53:33;;;;;;;11.25;4.05;;;;;;;;;;5003629;28;20568;-77
2022/09/29 12:56:19;;;;;;;9.15;3.67;;;;;;;;;;5008210;28;20030;-78
2022/09/29 12:58:52;;;;;;;10.88;4.97;;;;;;;;;;5005057;28;20038;-79
2022/09/29 13:01:21;;;;;;;13.55;5.15;;;;;;;;;;5000259;28;20049;-78
2022/09/29 13:03:47;;;;;;;7.07;4.22;;;;;;;;;;5010072;28;20033;-78
2022/09/29 13:06:13;;;;;;;26.23;10.10;;;;;;;;;;5011277;28;20053;-78
2022/09/29 13:08:42;;;;;;;7.85;4.53;;;;;;;;;;5011070;28;20061;-77
2022/09/29 13:11:38;;;;;;;7.28;3.95;;;;;;;;;;5010651;28;20102;-80
2022/09/29 13:14:07;;;;;;;5.90;3.92;;;;;;;;;;4994252;28;20393;-78
2022/09/29 13:16:46;;;;;;;8.05;2.50;;;;;;;;;;5010596;28;20080;-79
2022/09/29 13:19:32;;;;;;;4.63;2.05;;;;;;;;;;5011235;28;20536;-78
2022/09/29 13:22:01;;;;;;;3.90;1.88;;;;;;;;;;5011087;28;20044;-79
2022/09/29 13:24:35;;;;;;;4.65;1.50;;;;;;;;;;5010436;28;20041;-79
2022/09/29 13:27:13;;;;;;;2.53;1.67;;;;;;;;;;5021605;28;20041;-78
2022/09/29 13:29:45;;;;;;;4.53;2.08;;;;;;;;;;5030602;28;20099;-78
2022/09/29 13:32:11;;;;;;;2.05;1.60;;;;;;;;;;5030858;28;20049;-78
2022/09/29 13:34:38;;;;;;;2.83;1.73;;;;;;;;;;5030684;28;20037;-78
2022/09/29 13:37:05;;;;;;;2.47;1.55;;;;;;;;;;5010291;28;20077;-78
2022/09/29 13:39:31;;;;;;;5.35;2.08;;;;;;;;;;5010125;28;20065;-79
2022/09/29 13:42:17;;;;;;;3.53;1.60;;;;;;;;;;5009242;28;20034;-78
2022/09/29 13:45:03;;;;;;;4.82;1.70;;;;;;;;;;5010654;28;20052;-78
2022/09/29 13:47:32;;;;;;;5.47;1.70;;;;;;;;;;5009990;28;20362;-75
2022/09/29 13:50:18;;;;;;;4.28;1.55;;;;;;;;;;5009750;28;20038;-79
2022/09/29 13:52:47;;;;;;;6.55;1.30;;;;;;;;;;5010807;28;20128;-79
2022/09/29 13:55:49;;;;;;;4.13;1.17;;;;;;;;;;5012057;28;20037;-79
2022/09/29 13:58:28;;;;;;;4.07;3.15;;;;;;;;;;4970490;28;20043;-78
2022/09/29 14:00:55;;;;;;;3.70;2.83;;;;;;;;;;4970354;28;20039;-79
2022/09/29 14:03:24;;;;;;;5.10;3.40;;;;;;;;;;4972312;28;20549;-79
2022/09/29 14:06:08;;;;;;;4.85;2.13;;;;;;;;;;4985306;28;20078;-77
2022/09/29 14:08:51;;;;;;;3.47;2.38;;;;;;;;;;5015302;28;20085;-80
2022/09/29 14:11:23;;;;;;;5.90;2.97;;;;;;;;;;5024167;28;20120;-78
2022/09/29 14:14:08;;;;;;;2.55;1.10;;;;;;;;;;5014946;28;20033;-78
2022/09/29 14:16:43;;;;;;;2.13;1.65;;;;;;;;;;5014681;28;20037;-78
2022/09/29 14:19:25;;;;;;;3.72;1.63;;;;;;;;;;5014692;28;20041;-77
2022/09/29 14:21:52;;;;;;;3.33;2.50;;;;;;;;;;5014448;28;20135;-76
2022/09/29 14:24:40;;;;;;;3.67;2.20;;;;;;;;;;5029706;28;20041;-78
2022/09/29 14:27:29;;;;;;;4.85;2.38;;;;;;;;;;5030282;28;20040;-78
2022/09/29 14:30:25;;;;;;;4.18;2.22;;;;;;;;;;5014041;28;20038;-79
2022/09/29 14:32:54;;;;;;;2.63;2.30;;;;;;;;;;5001653;28;20128;-78
2022/09/29 14:35:20;;;;;;;3.80;1.98;;;;;;;;;;5014941;28;20073;-79
2022/09/29 14:37:49;;;;;;;2.40;2.03;;;;;;;;;;5033040;28;20030;-79
2022/09/29 14:43:22;;;;;;;5.97;2.72;;;;;;;;;;4995153;28;20060;-79
2022/09/29 14:51:59;;;;;;;20.60;18.67;;;;;;;;;;5009298;28;20636;-79
2022/09/29 14:54:45;;;;;;;11.82;9.32;;;;;;;;;;5014415;28;20049;-79
2022/09/29 14:57:31;;;;;;;7.85;5.25;;;;;;;;;;5014516;28;20034;-79
2022/09/29 15:00:04;;;;;;;4.03;2.75;;;;;;;;;;5014525;28;20164;-79
2022/09/29 15:02:33;;;;;;;5.18;2.70;;;;;;;;;;5013911;28;20034;-79
2022/09/29 15:04:59;;;;;;;4.60;2.65;;;;;;;;;;5014212;28;20046;-79
2022/09/29 15:07:26;;;;;;;8.63;2.95;;;;;;;;;;5012365;28;20109;-78
2022/09/29 15:09:57;;;;;;;4.82;2.67;;;;;;;;;;5014757;28;20392;-79
2022/09/29 15:12:25;;;;;;;5.50;2.90;;;;;;;;;;5014264;28;20042;-79